createdAt,value
2023-04-27T00:00:47.143Z,26.54
2023-04-27T00:01:47.217Z,26.49
2023-04-27T00:02:47.309Z,26.54
2023-04-27T00:03:47.388Z,26.55
2023-04-27T00:04:47.555Z,26.55
2023-04-27T00:05:47.415Z,26.54
2023-04-27T00:06:47.348Z,26.49
2023-04-27T00:07:47.380Z,26.52
2023-04-27T00:08:47.411Z,26.52
2023-04-27T00:09:47.433Z,26.52
2023-04-27T00:10:47.450Z,26.55
2023-04-27T00:11:47.458Z,26.55
2023-04-27T00:12:47.467Z,26.58
2023-04-27T00:13:47.464Z,26.54
2023-04-27T00:14:47.494Z,26.62
2023-04-27T00:15:47.505Z,26.52
2023-04-27T00:16:47.588Z,26.58
2023-04-27T00:17:47.565Z,26.55
2023-04-27T00:18:47.514Z,26.54
2023-04-27T00:19:47.580Z,26.57
2023-04-27T00:20:47.580Z,26.58
2023-04-27T00:21:47.595Z,26.57
2023-04-27T00:22:47.599Z,26.59
2023-04-27T00:23:47.625Z,26.55
2023-04-27T00:24:47.623Z,26.55
2023-04-27T00:25:47.624Z,26.54
2023-04-27T00:26:47.660Z,26.59
2023-04-27T00:27:47.649Z,26.58
2023-04-27T00:28:47.638Z,26.55
2023-04-27T00:29:47.657Z,26.52
2023-04-27T00:30:47.660Z,26.61
2023-04-27T00:31:47.788Z,26.53
2023-04-27T00:32:47.878Z,26.59
2023-04-27T00:33:47.692Z,26.59
2023-04-27T00:34:47.711Z,26.63
2023-04-27T00:35:47.718Z,26.59
2023-04-27T00:36:47.728Z,26.61
2023-04-27T00:37:47.747Z,26.59
2023-04-27T00:38:47.756Z,26.62
2023-04-27T00:39:47.770Z,26.58
2023-04-27T00:40:47.771Z,26.59
2023-04-27T00:41:48.568Z,26.61
2023-04-27T00:42:47.814Z,26.58
2023-04-27T00:43:47.830Z,26.57
2023-04-27T00:44:47.843Z,26.59
2023-04-27T00:45:47.848Z,26.61
2023-04-27T00:46:47.856Z,26.62
2023-04-27T00:47:47.891Z,26.62
2023-04-27T00:48:47.889Z,26.62
2023-04-27T00:49:47.887Z,26.62
2023-04-27T00:50:47.896Z,26.63
2023-04-27T00:51:47.901Z,26.65
2023-04-27T00:52:47.924Z,26.63
2023-04-27T00:53:47.932Z,26.59
2023-04-27T00:54:47.940Z,26.62
2023-04-27T00:55:47.943Z,26.62
2023-04-27T00:56:47.951Z,26.64
2023-04-27T00:57:47.975Z,26.63
2023-04-27T00:58:47.985Z,26.61
2023-04-27T00:59:48.015Z,26.62
2023-04-27T01:00:48.033Z,26.63
2023-04-27T01:01:48.120Z,26.61
2023-04-27T01:02:48.176Z,26.59
2023-04-27T01:03:48.281Z,26.63
2023-04-27T01:04:48.103Z,26.69
2023-04-27T01:05:48.094Z,26.62
2023-04-27T01:06:48.119Z,26.63
2023-04-27T01:07:48.152Z,26.62
2023-04-27T01:08:48.152Z,26.65
2023-04-27T01:09:48.178Z,26.61
2023-04-27T01:10:48.176Z,26.61
2023-04-27T01:11:48.194Z,26.61
2023-04-27T01:12:48.205Z,26.63
2023-04-27T01:13:48.205Z,26.69
2023-04-27T01:14:48.212Z,26.67
2023-04-27T01:15:48.205Z,26.65
2023-04-27T01:16:48.237Z,26.66
2023-04-27T01:17:48.250Z,26.65
2023-04-27T01:18:48.195Z,26.66
2023-04-27T01:19:48.199Z,26.66
2023-04-27T01:20:48.195Z,26.65
2023-04-27T01:21:48.203Z,26.66
2023-04-27T01:22:48.192Z,26.66
2023-04-27T01:23:48.190Z,26.65
2023-04-27T01:24:48.197Z,26.65
2023-04-27T01:25:48.188Z,26.67
2023-04-27T01:26:48.186Z,26.66
2023-04-27T01:27:48.174Z,26.65
2023-04-27T01:28:48.174Z,26.70
2023-04-27T01:29:48.170Z,26.69
2023-04-27T01:30:48.171Z,26.69
2023-04-27T01:31:48.184Z,26.69
2023-04-27T01:32:48.182Z,26.67
2023-04-27T01:33:48.161Z,26.69
2023-04-27T01:34:48.155Z,26.69
2023-04-27T01:35:48.141Z,26.69
2023-04-27T01:36:48.150Z,26.67
2023-04-27T01:37:48.153Z,26.72
2023-04-27T01:38:48.143Z,26.70
2023-04-27T01:39:48.131Z,26.67
2023-04-27T01:40:48.135Z,26.70
2023-04-27T01:41:48.140Z,26.72
2023-04-27T01:42:48.149Z,26.72
2023-04-27T01:43:48.142Z,26.69
2023-04-27T01:44:48.157Z,26.70
2023-04-27T01:45:48.158Z,26.67
2023-04-27T01:46:48.248Z,26.72
2023-04-27T01:47:48.215Z,26.72
2023-04-27T01:48:48.153Z,26.69
2023-04-27T01:49:48.152Z,26.69
2023-04-27T01:50:48.156Z,26.72
2023-04-27T01:51:48.155Z,26.69
2023-04-27T01:52:48.149Z,26.73
2023-04-27T01:53:48.145Z,26.72
2023-04-27T01:54:48.137Z,26.70
2023-04-27T01:55:48.129Z,26.76
2023-04-27T01:56:48.130Z,26.70
2023-04-27T01:57:48.150Z,26.73
2023-04-27T01:58:48.129Z,26.76
2023-04-27T01:59:48.132Z,26.76
2023-04-27T02:00:48.118Z,26.74
2023-04-27T02:01:48.160Z,26.73
2023-04-27T02:02:48.177Z,26.74
2023-04-27T02:03:48.290Z,26.77
2023-04-27T02:04:48.237Z,26.76
2023-04-27T02:05:48.111Z,26.75
2023-04-27T02:06:48.109Z,26.74
2023-04-27T02:07:48.119Z,26.74
2023-04-27T02:08:48.114Z,26.76
2023-04-27T02:09:48.136Z,26.76
2023-04-27T02:10:48.117Z,26.76
2023-04-27T02:11:48.132Z,26.79
2023-04-27T02:12:48.117Z,26.77
2023-04-27T02:13:48.148Z,26.79
2023-04-27T02:14:48.118Z,26.79
2023-04-27T02:15:48.169Z,26.79
2023-04-27T02:16:48.124Z,26.81
2023-04-27T02:17:48.173Z,26.79
2023-04-27T02:18:48.134Z,26.79
2023-04-27T02:19:48.150Z,26.79
2023-04-27T02:20:48.133Z,26.77
2023-04-27T02:21:48.139Z,26.84
2023-04-27T02:22:48.137Z,26.83
2023-04-27T02:23:48.133Z,26.81
2023-04-27T02:24:48.155Z,26.79
2023-04-27T02:25:48.135Z,26.80
2023-04-27T02:26:48.138Z,26.77
2023-04-27T02:27:48.141Z,26.82
2023-04-27T02:28:48.142Z,26.83
2023-04-27T02:29:48.155Z,26.79
2023-04-27T02:30:48.160Z,26.77
2023-04-27T02:31:48.232Z,26.85
2023-04-27T02:32:48.225Z,26.80
2023-04-27T02:33:48.180Z,26.84
2023-04-27T02:34:48.187Z,26.81
2023-04-27T02:35:48.183Z,26.85
2023-04-27T02:36:48.205Z,26.82
2023-04-27T02:37:48.194Z,26.80
2023-04-27T02:38:48.210Z,26.79
2023-04-27T02:39:48.224Z,26.81
2023-04-27T02:40:48.244Z,26.83
2023-04-27T02:41:48.274Z,26.85
2023-04-27T02:42:48.306Z,26.85
2023-04-27T02:43:48.319Z,26.84
2023-04-27T02:44:48.346Z,26.83
2023-04-27T02:45:48.374Z,26.83
2023-04-27T02:46:48.408Z,26.84
2023-04-27T02:47:48.432Z,26.85
2023-04-27T02:48:48.415Z,26.87
2023-04-27T02:49:48.451Z,26.85
2023-04-27T02:50:48.442Z,26.85
2023-04-27T02:51:48.466Z,26.90
2023-04-27T02:52:48.464Z,26.85
2023-04-27T02:53:48.473Z,26.82
2023-04-27T02:54:48.484Z,26.84
2023-04-27T02:55:49.123Z,26.91
2023-04-27T02:56:48.508Z,26.84
2023-04-27T02:57:48.528Z,26.87
2023-04-27T02:58:48.561Z,26.87
2023-04-27T02:59:48.583Z,26.87
2023-04-27T03:00:49.064Z,26.87
2023-04-27T03:01:48.589Z,26.85
2023-04-27T03:02:48.748Z,26.88
2023-04-27T03:03:48.815Z,26.84
2023-04-27T03:04:48.739Z,26.90
2023-04-27T03:05:48.702Z,26.87
2023-04-27T03:06:48.738Z,26.84
2023-04-27T03:07:48.795Z,26.85
2023-04-27T03:08:48.816Z,26.87
2023-04-27T03:09:48.853Z,26.87
2023-04-27T03:10:48.873Z,26.84
2023-04-27T03:11:48.936Z,26.84
2023-04-27T03:12:48.971Z,26.85
2023-04-27T03:13:49.014Z,26.82
2023-04-27T03:14:49.070Z,26.84
2023-04-27T03:15:49.133Z,26.86
2023-04-27T03:16:49.235Z,26.86
2023-04-27T03:17:49.276Z,26.85
2023-04-27T03:18:49.306Z,26.88
2023-04-27T03:19:49.375Z,26.88
2023-04-27T03:20:49.447Z,26.82
2023-04-27T03:21:49.492Z,26.77
2023-04-27T03:22:49.562Z,26.86
2023-04-27T03:23:49.625Z,26.79
2023-04-27T03:24:49.684Z,26.79
2023-04-27T03:25:49.754Z,26.84
2023-04-27T03:26:49.808Z,26.78
2023-04-27T03:27:49.877Z,26.75
2023-04-27T03:28:49.925Z,26.73
2023-04-27T03:29:50.014Z,26.75
2023-04-27T03:30:50.079Z,26.77
2023-04-27T03:31:50.177Z,26.76
2023-04-27T03:32:50.259Z,26.71
2023-04-27T03:33:50.300Z,26.71
2023-04-27T03:34:50.380Z,26.73
2023-04-27T03:35:50.444Z,26.73
2023-04-27T03:36:50.516Z,26.66
2023-04-27T03:37:50.587Z,26.63
2023-04-27T03:38:50.652Z,26.68
2023-04-27T03:39:50.713Z,26.65
2023-04-27T03:40:50.774Z,26.66
2023-04-27T03:41:50.835Z,26.68
2023-04-27T03:42:50.933Z,26.67
2023-04-27T03:43:50.980Z,26.70
2023-04-27T03:44:51.056Z,26.62
2023-04-27T03:45:51.155Z,26.74
2023-04-27T03:46:52.135Z,26.66
2023-04-27T03:47:51.320Z,26.72
2023-04-27T03:48:51.344Z,26.68
2023-04-27T03:49:51.402Z,26.69
2023-04-27T03:50:51.477Z,26.69
2023-04-27T03:51:51.531Z,26.69
2023-04-27T03:52:51.616Z,26.66
2023-04-27T03:53:51.682Z,26.66
2023-04-27T03:54:51.748Z,26.66
2023-04-27T03:55:51.805Z,26.68
2023-04-27T03:56:51.873Z,26.65
2023-04-27T03:57:51.950Z,26.59
2023-04-27T03:58:52.012Z,26.66
2023-04-27T03:59:52.101Z,26.66
2023-04-27T04:00:52.150Z,26.68
2023-04-27T04:01:52.302Z,26.66
2023-04-27T04:02:52.395Z,26.71
2023-04-27T04:03:52.468Z,26.65
2023-04-27T04:04:52.550Z,26.69
2023-04-27T04:05:52.506Z,26.69
2023-04-27T04:06:52.570Z,26.72
2023-04-27T04:07:52.630Z,26.71
2023-04-27T04:08:52.700Z,26.66
2023-04-27T04:09:52.762Z,26.68
2023-04-27T04:10:52.832Z,26.66
2023-04-27T04:11:53.657Z,26.69
2023-04-27T04:12:52.971Z,26.68
2023-04-27T04:13:53.027Z,26.66
2023-04-27T04:14:53.135Z,26.66
2023-04-27T04:15:53.213Z,26.70
2023-04-27T04:16:53.234Z,26.71
2023-04-27T04:17:53.404Z,26.74
2023-04-27T04:18:53.368Z,26.70
2023-04-27T04:19:53.447Z,26.72
2023-04-27T04:20:53.513Z,26.73
2023-04-27T04:21:53.579Z,26.72
2023-04-27T04:22:53.657Z,26.74
2023-04-27T04:23:53.713Z,26.74
2023-04-27T04:24:53.792Z,26.72
2023-04-27T04:25:53.862Z,26.69
2023-04-27T04:26:53.937Z,26.74
2023-04-27T04:27:53.987Z,26.76
2023-04-27T04:28:54.056Z,26.76
2023-04-27T04:29:54.126Z,26.74
2023-04-27T04:30:54.241Z,26.80
2023-04-27T04:31:54.296Z,26.76
2023-04-27T04:32:54.351Z,26.77
2023-04-27T04:33:54.418Z,26.82
2023-04-27T04:34:54.463Z,26.77
2023-04-27T04:35:54.557Z,26.76
2023-04-27T04:36:54.583Z,26.81
2023-04-27T04:37:54.649Z,26.82
2023-04-27T04:38:54.689Z,26.81
2023-04-27T04:39:54.769Z,26.79
2023-04-27T04:40:54.890Z,26.80
2023-04-27T04:41:54.900Z,26.86
2023-04-27T04:42:54.960Z,26.86
2023-04-27T04:43:55.036Z,26.84
2023-04-27T04:44:55.104Z,26.83
2023-04-27T04:45:55.162Z,26.86
2023-04-27T04:46:55.525Z,26.80
2023-04-27T04:47:55.307Z,26.83
2023-04-27T04:48:55.361Z,26.83
2023-04-27T04:49:55.427Z,26.86
2023-04-27T04:50:55.498Z,26.80
2023-04-27T04:51:55.559Z,26.86
2023-04-27T04:52:55.639Z,26.81
2023-04-27T04:53:55.706Z,26.86
2023-04-27T04:54:55.798Z,26.88
2023-04-27T04:55:55.854Z,26.88
2023-04-27T04:56:55.924Z,26.89
2023-04-27T04:57:56.001Z,26.84
2023-04-27T04:58:56.059Z,26.88
2023-04-27T04:59:56.138Z,26.87
2023-04-27T05:00:56.220Z,26.87
2023-04-27T05:01:56.539Z,26.87
2023-04-27T05:02:56.500Z,26.91
2023-04-27T05:03:56.572Z,26.91
2023-04-27T05:04:56.573Z,26.91
2023-04-27T05:05:56.575Z,26.91
2023-04-27T05:06:56.638Z,26.90
2023-04-27T05:07:56.710Z,26.86
2023-04-27T05:08:56.785Z,26.91
2023-04-27T05:09:56.842Z,26.93
2023-04-27T05:10:56.925Z,26.95
2023-04-27T05:11:56.983Z,26.88
2023-04-27T05:12:57.066Z,26.88
2023-04-27T05:13:57.142Z,26.93
2023-04-27T05:14:57.194Z,26.93
2023-04-27T05:15:57.307Z,26.95
2023-04-27T05:16:57.307Z,26.91
2023-04-27T05:17:57.435Z,26.93
2023-04-27T05:18:57.449Z,26.94
2023-04-27T05:19:57.507Z,26.93
2023-04-27T05:20:57.581Z,26.91
2023-04-27T05:21:57.626Z,26.88
2023-04-27T05:22:57.701Z,26.91
2023-04-27T05:23:57.754Z,26.88
2023-04-27T05:24:57.824Z,26.93
2023-04-27T05:25:57.889Z,27.40
2023-04-27T05:26:58.897Z,27.44
2023-04-27T05:27:58.017Z,28.30
2023-04-27T05:28:58.080Z,27.87
2023-04-27T05:29:58.143Z,28.50
2023-04-27T05:30:58.213Z,28.49
2023-04-27T05:31:58.348Z,28.84
2023-04-27T05:32:58.364Z,29.75
2023-04-27T05:33:58.399Z,29.74
2023-04-27T05:34:58.457Z,29.88
2023-04-27T05:35:58.566Z,30.32
2023-04-27T05:36:58.544Z,30.58
2023-04-27T05:37:58.597Z,30.78
2023-04-27T05:38:58.633Z,31.16
2023-04-27T05:39:58.663Z,31.34
2023-04-27T05:40:58.731Z,31.61
2023-04-27T05:41:58.721Z,31.94
2023-04-27T05:42:58.746Z,32.05
2023-04-27T05:43:58.755Z,32.10
2023-04-27T05:44:58.772Z,32.44
2023-04-27T05:45:58.857Z,32.76
2023-04-27T05:46:58.801Z,32.91
2023-04-27T05:47:58.869Z,33.19
2023-04-27T05:48:58.829Z,33.46
2023-04-27T05:49:58.818Z,33.63
2023-04-27T05:50:58.832Z,33.73
2023-04-27T05:51:58.864Z,34.02
2023-04-27T05:52:58.869Z,34.06
2023-04-27T05:53:58.849Z,34.50
2023-04-27T05:54:58.845Z,34.49
2023-04-27T05:55:58.863Z,34.65
2023-04-27T05:56:58.863Z,34.82
2023-04-27T05:58:07.531Z,34.89
2023-04-27T05:59:02.417Z,35.02
2023-04-27T05:59:58.888Z,35.13
2023-04-27T06:00:58.891Z,35.19
2023-04-27T06:01:58.939Z,35.33
2023-04-27T06:02:59.020Z,35.40
2023-04-27T06:03:58.946Z,35.39
2023-04-27T06:04:58.883Z,35.50
2023-04-27T06:05:59.212Z,35.71
2023-04-27T06:06:58.824Z,35.77
2023-04-27T06:07:58.830Z,36.04
2023-04-27T06:08:58.805Z,36.02
2023-04-27T06:09:58.873Z,36.16
2023-04-27T06:10:58.786Z,36.27
2023-04-27T06:11:58.788Z,36.29
2023-04-27T06:12:58.898Z,36.54
2023-04-27T06:13:59.292Z,36.59
2023-04-27T06:14:58.759Z,36.76
2023-04-27T06:15:58.770Z,36.81
2023-04-27T06:16:58.735Z,36.83
2023-04-27T06:17:58.777Z,37.08
2023-04-27T06:18:58.702Z,37.15
2023-04-27T06:19:58.689Z,37.41
2023-04-27T06:20:58.693Z,37.58
2023-04-27T06:21:58.690Z,37.59
2023-04-27T06:22:58.678Z,37.76
2023-04-27T06:23:58.677Z,37.72
2023-04-27T06:24:58.647Z,37.92
2023-04-27T06:25:58.632Z,38.22
2023-04-27T06:26:58.615Z,38.46
2023-04-27T06:27:58.636Z,37.45
2023-04-27T06:28:58.603Z,35.53
2023-04-27T06:29:58.588Z,34.54
2023-04-27T06:30:58.588Z,33.89
2023-04-27T06:31:58.632Z,32.97
2023-04-27T06:32:58.664Z,32.38
2023-04-27T06:33:58.704Z,31.94
2023-04-27T06:34:58.749Z,32.04
2023-04-27T06:35:58.805Z,32.01
2023-04-27T06:36:58.824Z,32.13
2023-04-27T06:37:59.066Z,32.31
2023-04-27T06:38:58.850Z,32.44
2023-04-27T06:39:59.700Z,32.59
2023-04-27T06:40:58.881Z,32.55
2023-04-27T06:41:59.633Z,32.39
2023-04-27T06:42:58.884Z,32.24
2023-04-27T06:43:59.287Z,32.12
2023-04-27T06:44:58.922Z,32.09
2023-04-27T06:45:58.965Z,32.15
2023-04-27T06:46:58.930Z,31.99
2023-04-27T06:47:58.971Z,31.86
2023-04-27T06:48:58.943Z,31.85
2023-04-27T06:49:58.940Z,31.98
2023-04-27T06:50:58.958Z,31.89
2023-04-27T06:51:58.964Z,31.78
2023-04-27T06:52:58.975Z,31.92
2023-04-27T06:53:58.969Z,31.72
2023-04-27T06:54:58.990Z,31.91
2023-04-27T06:55:58.993Z,31.81
2023-04-27T06:56:59.006Z,31.68
2023-04-27T06:57:59.015Z,31.76
2023-04-27T06:58:59.049Z,31.81
2023-04-27T06:59:59.026Z,31.70
2023-04-27T07:00:59.050Z,31.64
2023-04-27T07:01:59.279Z,31.61
2023-04-27T07:02:59.267Z,31.79
2023-04-27T07:03:59.175Z,31.79
2023-04-27T07:04:59.158Z,31.64
2023-04-27T07:05:59.082Z,31.71
2023-04-27T07:06:59.116Z,31.52
2023-04-27T07:08:00.905Z,31.40
2023-04-27T07:08:59.142Z,31.58
2023-04-27T07:09:59.146Z,31.67
2023-04-27T07:10:59.140Z,31.96
2023-04-27T07:11:59.136Z,32.00
2023-04-27T07:12:59.132Z,32.00
2023-04-27T07:13:59.119Z,32.31
2023-04-27T07:14:59.131Z,32.37
2023-04-27T07:15:59.158Z,32.30
2023-04-27T07:16:59.148Z,32.23
2023-04-27T07:17:59.198Z,32.31
2023-04-27T07:18:59.390Z,32.60
2023-04-27T07:19:59.107Z,32.40
2023-04-27T07:20:59.724Z,32.46
2023-04-27T07:21:59.115Z,32.33
2023-04-27T07:22:59.121Z,32.33
2023-04-27T07:23:59.118Z,32.57
2023-04-27T07:24:59.102Z,32.67
2023-04-27T07:25:59.818Z,32.73
2023-04-27T07:26:59.107Z,32.86
2023-04-27T07:27:59.145Z,32.87
2023-04-27T07:28:59.185Z,32.96
2023-04-27T07:29:59.248Z,32.95
2023-04-27T07:30:59.304Z,32.62
2023-04-27T07:31:59.358Z,32.76
2023-04-27T07:32:59.560Z,32.95
2023-04-27T07:34:00.234Z,32.89
2023-04-27T07:34:59.510Z,32.95
2023-04-27T07:35:59.567Z,32.89
2023-04-27T07:36:59.620Z,32.60
2023-04-27T07:37:59.666Z,32.73
2023-04-27T07:38:59.722Z,32.73
2023-04-27T07:39:59.801Z,32.53
2023-04-27T07:40:59.840Z,32.69
2023-04-27T07:41:59.885Z,32.73
2023-04-27T07:42:59.941Z,32.70
2023-04-27T07:43:59.978Z,32.66
2023-04-27T07:45:00.017Z,32.63
2023-04-27T07:46:00.107Z,32.64
2023-04-27T07:47:00.049Z,32.71
2023-04-27T07:48:00.119Z,32.79
2023-04-27T07:49:00.246Z,32.86
2023-04-27T07:50:00.111Z,32.96
2023-04-27T07:51:00.159Z,32.97
2023-04-27T07:52:00.121Z,33.09
2023-04-27T07:53:00.111Z,33.16
2023-04-27T07:54:00.132Z,33.22
2023-04-27T07:55:00.098Z,33.35
2023-04-27T07:56:00.109Z,33.36
2023-04-27T07:57:00.066Z,33.39
2023-04-27T07:58:00.105Z,33.48
2023-04-27T07:59:00.080Z,33.57
2023-04-27T08:00:00.133Z,33.67
2023-04-27T08:01:00.069Z,33.75
2023-04-27T08:02:17.709Z,33.80
2023-04-27T08:03:01.289Z,33.97
2023-04-27T08:04:00.279Z,34.06
2023-04-27T08:05:00.426Z,34.12
2023-04-27T08:06:00.579Z,34.20
2023-04-27T08:07:00.622Z,34.34
2023-04-27T08:08:59.949Z,34.39
2023-04-27T08:09:59.932Z,34.50
2023-04-27T08:10:59.954Z,34.54
2023-04-27T08:12:00.017Z,34.50
2023-04-27T08:13:00.105Z,34.63
2023-04-27T08:14:00.119Z,34.57
2023-04-27T08:15:00.180Z,34.23
2023-04-27T08:16:00.679Z,34.25
2023-04-27T08:17:00.254Z,34.16
2023-04-27T08:18:00.195Z,34.10
2023-04-27T08:19:00.875Z,33.62
2023-04-27T08:20:00.151Z,33.38
2023-04-27T08:21:00.192Z,33.50
2023-04-27T08:22:00.233Z,33.30
2023-04-27T08:23:00.180Z,33.47
2023-04-27T08:24:00.174Z,33.80
2023-04-27T08:25:00.214Z,33.76
2023-04-27T08:26:00.298Z,33.50
2023-04-27T08:27:00.315Z,32.69
2023-04-27T08:28:00.364Z,33.00
2023-04-27T08:29:01.979Z,33.81
2023-04-27T08:30:00.416Z,33.93
2023-04-27T08:31:00.493Z,34.32
2023-04-27T08:32:00.393Z,34.11
2023-04-27T08:33:01.495Z,34.13
2023-04-27T08:34:00.371Z,34.57
2023-04-27T08:35:00.378Z,34.49
2023-04-27T08:36:00.362Z,34.66
2023-04-27T08:37:00.381Z,34.97
2023-04-27T08:38:00.318Z,34.72
2023-04-27T08:39:00.340Z,34.80
2023-04-27T08:40:00.346Z,34.83
2023-04-27T08:41:07.645Z,34.91
2023-04-27T08:42:01.264Z,35.03
2023-04-27T08:43:00.251Z,35.08
2023-04-27T08:44:00.287Z,35.35
2023-04-27T08:45:00.228Z,35.25
2023-04-27T08:46:00.326Z,35.25
2023-04-27T08:47:00.185Z,35.29
2023-04-27T08:48:00.243Z,35.29
2023-04-27T08:49:00.189Z,35.30
2023-04-27T08:50:00.774Z,35.36
2023-04-27T08:51:00.767Z,35.35
2023-04-27T08:52:00.133Z,35.40
2023-04-27T08:53:00.135Z,35.54
2023-04-27T08:54:00.124Z,35.56
2023-04-27T08:55:00.069Z,35.64
2023-04-27T08:56:00.072Z,35.75
2023-04-27T08:57:00.035Z,35.80
2023-04-27T08:58:00.025Z,35.91
2023-04-27T08:59:00.063Z,36.04
2023-04-27T09:00:00.154Z,36.07
2023-04-27T09:01:00.121Z,36.12
2023-04-27T09:02:00.222Z,36.50
2023-04-27T09:03:00.230Z,36.44
2023-04-27T09:04:00.590Z,36.53
2023-04-27T09:05:00.482Z,36.52
2023-04-27T09:06:05.331Z,36.67
2023-04-27T09:07:01.227Z,36.72
2023-04-27T09:08:00.229Z,36.76
2023-04-27T09:09:00.194Z,36.93
2023-04-27T09:10:00.162Z,37.09
2023-04-27T09:11:00.163Z,37.09
2023-04-27T09:12:00.139Z,37.32
2023-04-27T09:13:00.199Z,37.52
2023-04-27T09:14:00.122Z,37.42
2023-04-27T09:15:02.791Z,37.70
2023-04-27T09:16:00.717Z,37.50
2023-04-27T09:17:00.161Z,37.59
2023-04-27T09:18:00.106Z,37.44
2023-04-27T09:18:59.988Z,37.39
2023-04-27T09:20:00.008Z,37.48
2023-04-27T09:20:59.951Z,37.55
2023-04-27T09:21:59.926Z,37.88
2023-04-27T09:23:00.703Z,37.75
2023-04-27T09:24:00.053Z,37.80
2023-04-27T09:25:00.738Z,37.80
2023-04-27T09:25:59.879Z,37.67
2023-04-27T09:27:00.851Z,37.63
2023-04-27T09:27:59.824Z,37.82
2023-04-27T09:28:59.823Z,37.71
2023-04-27T09:29:59.882Z,37.80
2023-04-27T09:30:59.780Z,37.82
2023-04-27T09:31:59.832Z,38.01
2023-04-27T09:32:59.761Z,38.05
2023-04-27T09:33:59.718Z,38.20
2023-04-27T09:34:59.699Z,38.19
2023-04-27T09:35:59.692Z,38.38
2023-04-27T09:36:59.664Z,38.39
2023-04-27T09:37:59.642Z,38.46
2023-04-27T09:38:59.633Z,38.60
2023-04-27T09:39:59.621Z,38.68
2023-04-27T09:40:59.612Z,38.57
2023-04-27T09:41:59.579Z,38.56
2023-04-27T09:42:59.572Z,38.49
2023-04-27T09:43:59.572Z,38.58
2023-04-27T09:44:59.540Z,38.71
2023-04-27T09:45:59.622Z,39.26
2023-04-27T09:46:59.495Z,38.88
2023-04-27T09:47:59.509Z,38.79
2023-04-27T09:48:59.459Z,38.76
2023-04-27T09:49:59.442Z,38.89
2023-04-27T09:50:59.423Z,38.76
2023-04-27T09:51:59.409Z,38.68
2023-04-27T09:52:59.394Z,38.62
2023-04-27T09:53:59.378Z,39.16
2023-04-27T09:54:59.362Z,38.73
2023-04-27T09:55:59.354Z,38.73
2023-04-27T09:56:59.335Z,38.84
2023-04-27T09:57:59.319Z,38.95
2023-04-27T09:58:59.307Z,38.74
2023-04-27T09:59:59.295Z,38.60
2023-04-27T10:00:59.334Z,38.32
2023-04-27T10:02:01.319Z,38.14
2023-04-27T10:02:59.311Z,38.35
2023-04-27T10:03:59.415Z,38.34
2023-04-27T10:04:59.267Z,38.35
2023-04-27T10:05:59.190Z,38.51
2023-04-27T10:06:59.171Z,38.33
2023-04-27T10:07:59.145Z,38.32
2023-04-27T10:08:59.137Z,38.18
2023-04-27T10:09:59.109Z,38.05
2023-04-27T10:10:59.082Z,38.14
2023-04-27T10:11:59.074Z,38.04
2023-04-27T10:12:59.047Z,37.90
2023-04-27T10:13:59.051Z,37.33
2023-04-27T10:14:59.043Z,37.04
2023-04-27T10:15:58.984Z,37.00
2023-04-27T10:16:59.040Z,36.98
2023-04-27T10:17:59.286Z,37.00
2023-04-27T10:18:58.943Z,36.98
2023-04-27T10:19:58.939Z,36.94
2023-04-27T10:20:58.908Z,36.90
2023-04-27T10:21:58.896Z,36.96
2023-04-27T10:22:58.873Z,36.92
2023-04-27T10:23:58.857Z,36.98
2023-04-27T10:24:58.833Z,37.07
2023-04-27T10:25:58.823Z,37.10
2023-04-27T10:26:58.806Z,37.22
2023-04-27T10:27:58.795Z,37.16
2023-04-27T10:28:58.780Z,37.20
2023-04-27T10:29:58.760Z,37.19
2023-04-27T10:30:58.773Z,37.12
2023-04-27T10:31:58.744Z,37.07
2023-04-27T10:32:58.771Z,37.02
2023-04-27T10:33:58.694Z,37.03
2023-04-27T10:34:58.678Z,37.03
2023-04-27T10:35:58.664Z,36.98
2023-04-27T10:36:58.653Z,37.00
2023-04-27T10:37:58.677Z,37.05
2023-04-27T10:38:58.742Z,37.02
2023-04-27T10:39:58.797Z,36.94
2023-04-27T10:40:58.833Z,36.91
2023-04-27T10:41:58.887Z,36.87
2023-04-27T10:42:58.932Z,36.87
2023-04-27T10:43:59.803Z,36.83
2023-04-27T10:44:59.299Z,36.87
2023-04-27T10:45:59.096Z,36.84
2023-04-27T10:46:59.138Z,36.89
2023-04-27T10:47:59.187Z,36.78
2023-04-27T10:48:59.217Z,36.72
2023-04-27T10:49:59.292Z,36.72
2023-04-27T10:50:59.319Z,36.67
2023-04-27T10:51:59.380Z,36.65
2023-04-27T10:53:00.930Z,36.67
2023-04-27T10:53:59.455Z,36.65
2023-04-27T10:54:59.493Z,36.63
2023-04-27T10:55:59.554Z,36.63
2023-04-27T10:56:59.591Z,36.55
2023-04-27T10:57:59.648Z,36.55
2023-04-27T10:58:59.689Z,36.59
2023-04-27T10:59:59.749Z,36.58
2023-04-27T11:00:59.802Z,36.49
2023-04-27T11:01:59.902Z,36.52
2023-04-27T11:02:59.995Z,36.43
2023-04-27T11:03:59.956Z,36.46
2023-04-27T11:05:00.042Z,36.41
2023-04-27T11:06:00.024Z,36.40
2023-04-27T11:07:00.094Z,36.39
2023-04-27T11:08:00.181Z,36.39
2023-04-27T11:09:00.154Z,36.41
2023-04-27T11:10:00.331Z,36.44
2023-04-27T11:11:00.287Z,36.43
2023-04-27T11:12:00.323Z,36.40
2023-04-27T11:13:00.395Z,36.36
2023-04-27T11:14:00.402Z,36.37
2023-04-27T11:15:00.452Z,36.30
2023-04-27T11:16:00.462Z,36.28
2023-04-27T11:17:00.488Z,36.23
2023-04-27T11:18:00.578Z,36.26
2023-04-27T11:19:00.540Z,36.24
2023-04-27T11:20:00.586Z,36.19
2023-04-27T11:21:00.597Z,36.22
2023-04-27T11:22:00.610Z,36.15
2023-04-27T11:23:00.640Z,36.09
2023-04-27T11:24:00.666Z,36.11
2023-04-27T11:25:00.694Z,36.08
2023-04-27T11:26:00.698Z,34.50
2023-04-27T11:27:00.696Z,33.66
2023-04-27T11:28:00.696Z,32.55
2023-04-27T11:29:00.728Z,33.28
2023-04-27T11:30:01.113Z,32.76
2023-04-27T11:31:00.868Z,32.01
2023-04-27T11:32:00.934Z,32.27
2023-04-27T11:33:00.891Z,32.14
2023-04-27T11:34:00.940Z,32.32
2023-04-27T11:35:00.976Z,31.55
2023-04-27T11:36:01.024Z,31.03
2023-04-27T11:38:01.152Z,29.98
2023-04-27T11:39:01.111Z,29.70
2023-04-27T11:40:01.073Z,30.18
2023-04-27T11:41:01.096Z,29.47
2023-04-27T11:42:01.056Z,29.61
2023-04-27T11:43:01.098Z,29.19
2023-04-27T11:44:01.034Z,29.39
2023-04-27T11:45:01.206Z,28.72
2023-04-27T11:46:01.033Z,28.63
2023-04-27T11:47:01.080Z,28.94
2023-04-27T11:48:01.160Z,28.43
2023-04-27T11:49:01.022Z,28.45
2023-04-27T11:50:01.034Z,28.14
2023-04-27T11:51:01.034Z,28.12
2023-04-27T11:52:01.019Z,28.21
2023-04-27T11:53:01.014Z,28.49
2023-04-27T11:54:01.012Z,28.69
2023-04-27T11:55:01.024Z,28.32
2023-04-27T11:56:01.002Z,28.04
2023-04-27T11:57:00.992Z,28.75
2023-04-27T11:58:00.991Z,28.54
2023-04-27T11:59:00.984Z,28.83
2023-04-27T12:00:01.146Z,29.05
2023-04-27T12:01:00.979Z,29.24
2023-04-27T12:02:01.038Z,28.70
2023-04-27T12:03:01.072Z,28.81
2023-04-27T12:04:11.314Z,28.68
2023-04-27T12:05:02.346Z,29.01
2023-04-27T12:06:15.898Z,29.42
2023-04-27T12:07:01.953Z,29.12
2023-04-27T12:08:00.947Z,28.73
2023-04-27T12:09:00.957Z,28.99
2023-04-27T12:10:01.277Z,29.23
2023-04-27T12:11:00.951Z,29.39
2023-04-27T12:12:00.950Z,29.15
2023-04-27T12:13:00.947Z,29.12
2023-04-27T12:14:00.957Z,29.16
2023-04-27T12:15:01.145Z,29.28
2023-04-27T12:16:01.214Z,29.10
2023-04-27T12:17:01.012Z,29.48
2023-04-27T12:18:01.047Z,29.64
2023-04-27T12:19:01.091Z,29.43
2023-04-27T12:20:01.174Z,29.13
2023-04-27T12:21:03.430Z,29.11
2023-04-27T12:22:01.403Z,28.56
2023-04-27T12:23:01.491Z,28.81
2023-04-27T12:24:01.524Z,28.85
2023-04-27T12:25:01.627Z,28.90
2023-04-27T12:26:01.664Z,28.90
2023-04-27T12:27:01.733Z,28.98
2023-04-27T12:28:01.803Z,29.14
2023-04-27T12:29:01.872Z,29.23
2023-04-27T12:30:01.983Z,29.17
2023-04-27T12:31:02.037Z,29.02
2023-04-27T12:32:02.052Z,29.23
2023-04-27T12:33:02.126Z,29.55
2023-04-27T12:34:02.135Z,29.37
2023-04-27T12:35:02.202Z,29.27
2023-04-27T12:36:02.259Z,29.09
2023-04-27T12:37:02.306Z,29.10
2023-04-27T12:38:02.378Z,29.11
2023-04-27T12:39:02.438Z,29.35
2023-04-27T12:40:02.519Z,29.80
2023-04-27T12:41:02.550Z,29.63
2023-04-27T12:42:02.608Z,29.56
2023-04-27T12:43:02.796Z,29.95
2023-04-27T12:44:02.683Z,29.68
2023-04-27T12:45:02.731Z,29.33
2023-04-27T12:46:02.899Z,29.25
2023-04-27T12:47:02.808Z,29.26
2023-04-27T12:48:04.229Z,29.75
2023-04-27T12:49:02.906Z,29.11
2023-04-27T12:50:02.946Z,29.25
2023-04-27T12:51:03.001Z,29.73
2023-04-27T12:52:03.009Z,30.27
2023-04-27T12:53:03.037Z,29.72
2023-04-27T12:54:03.083Z,29.68
2023-04-27T12:55:03.149Z,30.13